Fogelsville, Pennsylvania
Current Conditions -  °F | °C
As of 2:35 AM on Sunday 23 Nov 2014 (Local Time) from KXLL Reporting Station
Scattered Clouds Scattered Clouds  
Wind Chill: 37°   Ceiling: Unl
Heat Index: 37°   Visibility: 10mi
Dew Point: 21°   Wind: 0mph
Humidity: 52%   Direction: NA
Pressure: 30.2"   Gusts: NA
Location:  40.58°N, 75.63°W
Report Text: KXLL 230735Z AUTO 00000KT 10SM SCT110 03/M06 A3020 RMK AO2
Loading
Personal Weather Stations






























Interactive Weather Map New forecast layout! Learn more

10-Day Weather Forecast

Advertisements
Track Severe Weather on mobile